sensor_id;sensor_type;location;lat;lon;timestamp;pressure;altitude;pressure_sealevel;temperature;humidity
82353;BME280;71954;47.430;18.920;2023-10-31T00:01:21;98947.94;;;14.86;69.21
82353;BME280;71954;47.430;18.920;2023-10-31T00:03:48;98932.56;;;14.88;68.02
82353;BME280;71954;47.430;18.920;2023-10-31T00:06:14;98938.94;;;14.79;70.69
82353;BME280;71954;47.430;18.920;2023-10-31T00:08:41;98936.25;;;14.87;70.01
82353;BME280;71954;47.430;18.920;2023-10-31T00:11:08;98943.25;;;14.88;68.39
82353;BME280;71954;47.430;18.920;2023-10-31T00:13:34;98943.88;;;14.90;70.04
82353;BME280;71954;47.430;18.920;2023-10-31T00:16:01;98949.91;;;14.92;67.73
82353;BME280;71954;47.430;18.920;2023-10-31T00:19:00;98935.88;;;14.90;71.17
82353;BME280;71954;47.430;18.920;2023-10-31T00:21:46;98931.06;;;14.86;70.60
82353;BME280;71954;47.430;18.920;2023-10-31T00:24:13;98928.38;;;14.86;67.84
82353;BME280;71954;47.430;18.920;2023-10-31T00:26:39;98923.41;;;14.83;70.73
82353;BME280;71954;47.430;18.920;2023-10-31T00:29:06;98925.06;;;14.84;68.82
82353;BME280;71954;47.430;18.920;2023-10-31T00:31:32;98918.25;;;14.81;70.10
82353;BME280;71954;47.430;18.920;2023-10-31T00:34:01;98904.75;;;14.75;70.27
82353;BME280;71954;47.430;18.920;2023-10-31T00:36:28;98901.41;;;14.73;69.48
82353;BME280;71954;47.430;18.920;2023-10-31T00:38:55;98914.31;;;14.69;68.83
82353;BME280;71954;47.430;18.920;2023-10-31T00:41:21;98907.13;;;14.70;69.24
82353;BME280;71954;47.430;18.920;2023-10-31T00:43:48;98893.81;;;14.61;69.45
82353;BME280;71954;47.430;18.920;2023-10-31T00:46:15;98897.16;;;14.63;69.16
82353;BME280;71954;47.430;18.920;2023-10-31T00:48:41;98888.16;;;14.56;69.82
82353;BME280;71954;47.430;18.920;2023-10-31T00:51:08;98886.31;;;14.57;67.43
82353;BME280;71954;47.430;18.920;2023-10-31T00:53:35;98880.16;;;14.56;69.37
82353;BME280;71954;47.430;18.920;2023-10-31T00:56:01;98878.66;;;14.54;69.92
82353;BME280;71954;47.430;18.920;2023-10-31T00:58:29;98879.00;;;14.51;67.37
82353;BME280;71954;47.430;18.920;2023-10-31T01:00:55;98876.50;;;14.49;70.34
82353;BME280;71954;47.430;18.920;2023-10-31T01:03:22;98864.00;;;14.50;70.36
82353;BME280;71954;47.430;18.920;2023-10-31T01:05:49;98859.50;;;14.50;67.84
82353;BME280;71954;47.430;18.920;2023-10-31T01:08:15;98881.53;;;14.52;70.00
82353;BME280;71954;47.430;18.920;2023-10-31T01:10:42;98853.19;;;14.43;68.33
82353;BME280;71954;47.430;18.920;2023-10-31T01:13:09;98871.88;;;14.43;69.17
82353;BME280;71954;47.430;18.920;2023-10-31T01:15:35;98838.66;;;14.46;67.50
82353;BME280;71954;47.430;18.920;2023-10-31T01:18:02;98844.47;;;14.49;66.33
82353;BME280;71954;47.430;18.920;2023-10-31T01:20:28;98842.94;;;14.55;67.83
82353;BME280;71954;47.430;18.920;2023-10-31T01:22:55;98842.91;;;14.63;66.66
82353;BME280;71954;47.430;18.920;2023-10-31T01:25:22;98831.84;;;14.66;67.54
82353;BME280;71954;47.430;18.920;2023-10-31T01:27:48;98830.84;;;14.67;66.70
82353;BME280;71954;47.430;18.920;2023-10-31T01:30:15;98836.00;;;14.69;68.58
82353;BME280;71954;47.430;18.920;2023-10-31T01:32:41;98828.47;;;14.72;69.07
82353;BME280;71954;47.430;18.920;2023-10-31T01:35:08;98824.78;;;14.73;68.28
82353;BME280;71954;47.430;18.920;2023-10-31T01:37:35;98833.03;;;14.63;69.46
82353;BME280;71954;47.430;18.920;2023-10-31T01:40:02;98819.88;;;14.62;69.01
82353;BME280;71954;47.430;18.920;2023-10-31T01:42:30;98815.81;;;14.66;69.16
82353;BME280;71954;47.430;18.920;2023-10-31T01:44:57;98811.84;;;14.62;69.03
82353;BME280;71954;47.430;18.920;2023-10-31T01:47:23;98818.50;;;14.66;70.05
82353;BME280;71954;47.430;18.920;2023-10-31T01:49:52;98808.50;;;14.60;70.76
82353;BME280;71954;47.430;18.920;2023-10-31T01:52:18;98803.84;;;14.62;69.86
82353;BME280;71954;47.430;18.920;2023-10-31T01:54:45;98798.31;;;14.63;70.67
82353;BME280;71954;47.430;18.920;2023-10-31T01:57:12;98800.50;;;14.60;70.24
82353;BME280;71954;47.430;18.920;2023-10-31T01:59:40;98818.91;;;14.55;70.85
82353;BME280;71954;47.430;18.920;2023-10-31T02:02:06;98804.25;;;14.51;71.21
82353;BME280;71954;47.430;18.920;2023-10-31T02:04:34;98805.91;;;14.52;70.58
82353;BME280;71954;47.430;18.920;2023-10-31T02:07:01;98803.53;;;14.57;69.06
82353;BME280;71954;47.430;18.920;2023-10-31T02:09:28;98795.38;;;14.58;67.02
82353;BME280;71954;47.430;18.920;2023-10-31T02:11:56;98785.69;;;14.57;67.89
82353;BME280;71954;47.430;18.920;2023-10-31T02:14:24;98779.63;;;14.63;67.10
82353;BME280;71954;47.430;18.920;2023-10-31T02:16:51;98780.63;;;14.62;69.25
82353;BME280;71954;47.430;18.920;2023-10-31T02:19:20;98773.09;;;14.66;68.43
82353;BME280;71954;47.430;18.920;2023-10-31T02:21:47;98779.75;;;14.70;68.13
82353;BME280;71954;47.430;18.920;2023-10-31T02:24:14;98768.69;;;14.73;65.56
82353;BME280;71954;47.430;18.920;2023-10-31T02:26:40;98779.66;;;14.78;66.39
82353;BME280;71954;47.430;18.920;2023-10-31T02:29:07;98776.66;;;14.81;68.07
82353;BME280;71954;47.430;18.920;2023-10-31T02:31:34;98780.31;;;14.80;67.32
82353;BME280;71954;47.430;18.920;2023-10-31T02:34:00;98782.00;;;14.81;68.48
82353;BME280;71954;47.430;18.920;2023-10-31T02:36:27;98790.19;;;14.80;68.23
82353;BME280;71954;47.430;18.920;2023-10-31T02:38:54;98770.66;;;14.79;69.39
82353;BME280;71954;47.430;18.920;2023-10-31T02:41:20;98775.44;;;14.84;67.51
82353;BME280;71954;47.430;18.920;2023-10-31T02:43:47;98774.28;;;14.86;67.63
82353;BME280;71954;47.430;18.920;2023-10-31T02:46:13;98776.56;;;14.89;68.28
82353;BME280;71954;47.430;18.920;2023-10-31T02:48:42;98773.88;;;14.89;67.32
82353;BME280;71954;47.430;18.920;2023-10-31T02:51:08;98773.53;;;14.92;67.79
82353;BME280;71954;47.430;18.920;2023-10-31T02:53:35;98780.19;;;14.96;67.39
82353;BME280;71954;47.430;18.920;2023-10-31T02:56:03;98779.19;;;14.97;68.27
82353;BME280;71954;47.430;18.920;2023-10-31T02:58:30;98781.19;;;14.95;68.04
82353;BME280;71954;47.430;18.920;2023-10-31T03:00:57;98777.50;;;14.96;67.65
82353;BME280;71954;47.430;18.920;2023-10-31T03:03:23;98769.50;;;14.96;66.73
82353;BME280;71954;47.430;18.920;2023-10-31T03:05:50;98771.31;;;14.96;65.97
82353;BME280;71954;47.430;18.920;2023-10-31T03:08:16;98777.34;;;14.98;65.82
82353;BME280;71954;47.430;18.920;2023-10-31T03:10:48;98760.13;;;15.00;66.79
82353;BME280;71954;47.430;18.920;2023-10-31T03:13:17;98779.47;;;15.02;65.64
82353;BME280;71954;47.430;18.920;2023-10-31T03:15:45;98777.78;;;15.01;67.22
82353;BME280;71954;47.430;18.920;2023-10-31T03:18:12;98764.25;;;15.03;65.79
82353;BME280;71954;47.430;18.920;2023-10-31T03:20:43;98766.75;;;15.04;66.96
82353;BME280;71954;47.430;18.920;2023-10-31T03:23:12;98779.09;;;15.05;67.78
82353;BME280;71954;47.430;18.920;2023-10-31T03:25:39;98788.78;;;15.06;66.24
82353;BME280;71954;47.430;18.920;2023-10-31T03:28:17;98787.75;;;15.07;67.65
82353;BME280;71954;47.430;18.920;2023-10-31T03:30:48;98800.22;;;15.00;66.49
82353;BME280;71954;47.430;18.920;2023-10-31T03:33:15;98809.84;;;15.01;65.93
82353;BME280;71954;47.430;18.920;2023-10-31T03:35:43;98808.00;;;14.87;67.10
82353;BME280;71954;47.430;18.920;2023-10-31T03:38:10;98803.81;;;14.85;68.68
82353;BME280;71954;47.430;18.920;2023-10-31T03:40:37;98814.06;;;14.81;70.66
82353;BME280;71954;47.430;18.920;2023-10-31T03:43:03;98827.75;;;14.78;68.57
82353;BME280;71954;47.430;18.920;2023-10-31T03:45:30;98820.56;;;14.79;71.67
82353;BME280;71954;47.430;18.920;2023-10-31T03:47:57;98803.25;;;14.75;70.45
82353;BME280;71954;47.430;18.920;2023-10-31T03:50:23;98799.75;;;14.74;69.74
82353;BME280;71954;47.430;18.920;2023-10-31T03:52:50;98805.75;;;14.76;71.11
82353;BME280;71954;47.430;18.920;2023-10-31T03:55:17;98816.22;;;14.78;69.43
82353;BME280;71954;47.430;18.920;2023-10-31T03:57:43;98812.72;;;14.77;70.00
82353;BME280;71954;47.430;18.920;2023-10-31T04:00:10;98811.81;;;14.70;71.21
82353;BME280;71954;47.430;18.920;2023-10-31T04:02:39;98813.84;;;14.60;71.34
82353;BME280;71954;47.430;18.920;2023-10-31T04:05:06;98810.34;;;14.59;70.88
82353;BME280;71954;47.430;18.920;2023-10-31T04:07:33;98805.50;;;14.63;72.07
82353;BME280;71954;47.430;18.920;2023-10-31T04:10:00;98819.19;;;14.60;72.52
82353;BME280;71954;47.430;18.920;2023-10-31T04:12:26;98802.22;;;14.53;74.43
82353;BME280;71954;47.430;18.920;2023-10-31T04:14:53;98803.31;;;14.36;75.51
82353;BME280;71954;47.430;18.920;2023-10-31T04:17:19;98791.63;;;14.37;73.70
82353;BME280;71954;47.430;18.920;2023-10-31T04:19:46;98787.66;;;14.33;75.31
82353;BME280;71954;47.430;18.920;2023-10-31T04:22:13;98788.94;;;14.37;75.43
82353;BME280;71954;47.430;18.920;2023-10-31T04:24:39;98781.09;;;14.35;75.22
82353;BME280;71954;47.430;18.920;2023-10-31T04:27:06;98775.97;;;14.34;75.43
82353;BME280;71954;47.430;18.920;2023-10-31T04:29:33;98778.66;;;14.34;75.42
82353;BME280;71954;47.430;18.920;2023-10-31T04:32:00;98774.31;;;14.33;75.29
82353;BME280;71954;47.430;18.920;2023-10-31T04:34:26;98778.41;;;14.12;76.14
82353;BME280;71954;47.430;18.920;2023-10-31T04:36:53;98775.28;;;14.09;76.56
82353;BME280;71954;47.430;18.920;2023-10-31T04:39:20;98763.78;;;14.08;76.33
82353;BME280;71954;47.430;18.920;2023-10-31T04:41:46;98763.78;;;14.08;75.68
82353;BME280;71954;47.430;18.920;2023-10-31T04:44:13;98772.91;;;14.14;76.22
82353;BME280;71954;47.430;18.920;2023-10-31T04:46:40;98775.06;;;14.18;75.89
82353;BME280;71954;47.430;18.920;2023-10-31T04:49:06;98769.31;;;13.99;76.55
82353;BME280;71954;47.430;18.920;2023-10-31T04:51:37;98751.34;;;13.93;76.75
82353;BME280;71954;47.430;18.920;2023-10-31T04:54:04;98751.53;;;13.91;76.27
82353;BME280;71954;47.430;18.920;2023-10-31T04:56:31;98748.19;;;13.89;76.57
82353;BME280;71954;47.430;18.920;2023-10-31T04:58:57;98751.03;;;13.88;76.40
82353;BME280;71954;47.430;18.920;2023-10-31T05:01:24;98734.19;;;13.87;76.82
82353;BME280;71954;47.430;18.920;2023-10-31T05:03:51;98733.25;;;13.80;77.37
82353;BME280;71954;47.430;18.920;2023-10-31T05:06:36;98719.41;;;13.76;77.21
82353;BME280;71954;47.430;18.920;2023-10-31T05:09:02;98695.91;;;13.80;77.25
82353;BME280;71954;47.430;18.920;2023-10-31T05:11:30;98694.88;;;13.81;77.53
82353;BME280;71954;47.430;18.920;2023-10-31T05:13:56;98686.06;;;13.80;77.39
82353;BME280;71954;47.430;18.920;2023-10-31T05:16:23;98693.56;;;13.85;76.97
82353;BME280;71954;47.430;18.920;2023-10-31T05:18:50;98699.34;;;13.89;76.60
82353;BME280;71954;47.430;18.920;2023-10-31T05:21:20;98724.19;;;13.89;75.54
82353;BME280;71954;47.430;18.920;2023-10-31T05:23:47;98738.00;;;13.93;75.90
82353;BME280;71954;47.430;18.920;2023-10-31T05:26:13;98738.84;;;13.93;75.72
82353;BME280;71954;47.430;18.920;2023-10-31T05:28:40;98750.16;;;13.95;76.06
82353;BME280;71954;47.430;18.920;2023-10-31T05:31:07;98758.63;;;13.99;76.20
82353;BME280;71954;47.430;18.920;2023-10-31T05:33:34;98754.47;;;14.04;76.51
82353;BME280;71954;47.430;18.920;2023-10-31T05:36:00;98754.94;;;14.08;76.42
82353;BME280;71954;47.430;18.920;2023-10-31T05:38:28;98755.09;;;14.06;76.60
82353;BME280;71954;47.430;18.920;2023-10-31T05:40:54;98748.81;;;13.99;76.82
82353;BME280;71954;47.430;18.920;2023-10-31T05:43:21;98737.97;;;14.01;76.31
82353;BME280;71954;47.430;18.920;2023-10-31T05:45:47;98736.50;;;13.98;74.01
82353;BME280;71954;47.430;18.920;2023-10-31T05:48:14;98729.44;;;14.05;74.64
82353;BME280;71954;47.430;18.920;2023-10-31T05:50:42;98731.38;;;14.11;75.95
82353;BME280;71954;47.430;18.920;2023-10-31T05:53:09;98718.72;;;14.13;73.96
82353;BME280;71954;47.430;18.920;2023-10-31T05:55:38;98724.34;;;14.18;74.63
82353;BME280;71954;47.430;18.920;2023-10-31T05:58:05;98723.00;;;14.22;74.37
82353;BME280;71954;47.430;18.920;2023-10-31T06:00:32;98717.66;;;14.22;70.03
82353;BME280;71954;47.430;18.920;2023-10-31T06:02:59;98710.13;;;14.26;71.80
82353;BME280;71954;47.430;18.920;2023-10-31T06:05:25;98707.28;;;14.27;70.25
82353;BME280;71954;47.430;18.920;2023-10-31T06:07:52;98703.78;;;14.27;70.94
82353;BME280;71954;47.430;18.920;2023-10-31T06:10:19;98705.91;;;14.32;71.71
82353;BME280;71954;47.430;18.920;2023-10-31T06:12:47;98703.53;;;14.37;70.44
82353;BME280;71954;47.430;18.920;2023-10-31T06:15:13;98714.91;;;14.39;70.17
82353;BME280;71954;47.430;18.920;2023-10-31T06:17:40;98727.88;;;14.42;69.73
82353;BME280;71954;47.430;18.920;2023-10-31T06:20:08;98734.16;;;14.49;73.46
82353;BME280;71954;47.430;18.920;2023-10-31T06:22:35;98738.78;;;14.55;73.12
82353;BME280;71954;47.430;18.920;2023-10-31T06:25:01;98737.63;;;14.57;74.23
82353;BME280;71954;47.430;18.920;2023-10-31T06:27:28;98749.31;;;14.56;74.15
82353;BME280;71954;47.430;18.920;2023-10-31T06:29:55;98741.34;;;14.48;75.24
82353;BME280;71954;47.430;18.920;2023-10-31T06:32:41;98728.25;;;14.39;75.60
82353;BME280;71954;47.430;18.920;2023-10-31T06:35:08;98720.91;;;14.33;75.74
82353;BME280;71954;47.430;18.920;2023-10-31T06:37:35;98722.94;;;14.31;76.36
82353;BME280;71954;47.430;18.920;2023-10-31T06:40:03;98712.97;;;14.24;75.52
82353;BME280;71954;47.430;18.920;2023-10-31T06:42:30;98720.50;;;14.21;76.57
82353;BME280;71954;47.430;18.920;2023-10-31T06:44:57;98733.19;;;14.19;76.55
82353;BME280;71954;47.430;18.920;2023-10-31T06:47:23;98734.47;;;14.23;76.87
82353;BME280;71954;47.430;18.920;2023-10-31T06:49:50;98751.00;;;14.26;76.84
82353;BME280;71954;47.430;18.920;2023-10-31T06:52:16;98746.94;;;14.31;76.46
82353;BME280;71954;47.430;18.920;2023-10-31T06:54:43;98757.91;;;14.36;76.53
82353;BME280;71954;47.430;18.920;2023-10-31T06:57:10;98768.75;;;14.42;76.58
82353;BME280;71954;47.430;18.920;2023-10-31T06:59:36;98753.94;;;14.32;77.00
82353;BME280;71954;47.430;18.920;2023-10-31T07:02:03;98746.09;;;14.38;76.19
82353;BME280;71954;47.430;18.920;2023-10-31T07:04:30;98752.78;;;14.34;77.72
82353;BME280;71954;47.430;18.920;2023-10-31T07:06:57;98753.28;;;14.38;77.38
82353;BME280;71954;47.430;18.920;2023-10-31T07:09:24;98749.91;;;14.36;77.60
82353;BME280;71954;47.430;18.920;2023-10-31T07:11:51;98747.94;;;14.38;77.42
82353;BME280;71954;47.430;18.920;2023-10-31T07:14:18;98761.59;;;14.43;77.69
82353;BME280;71954;47.430;18.920;2023-10-31T07:16:45;98754.69;;;14.48;77.68
82353;BME280;71954;47.430;18.920;2023-10-31T07:19:14;98751.56;;;14.45;77.38
82353;BME280;71954;47.430;18.920;2023-10-31T07:21:40;98755.53;;;14.49;78.42
82353;BME280;71954;47.430;18.920;2023-10-31T07:24:07;98759.03;;;14.49;78.65
82353;BME280;71954;47.430;18.920;2023-10-31T07:26:35;98750.47;;;14.54;78.82
82353;BME280;71954;47.430;18.920;2023-10-31T07:29:04;98745.44;;;14.59;78.67
82353;BME280;71954;47.430;18.920;2023-10-31T07:31:35;98743.06;;;14.64;78.09
82353;BME280;71954;47.430;18.920;2023-10-31T07:34:05;98739.03;;;14.68;78.31
82353;BME280;71954;47.430;18.920;2023-10-31T07:36:32;98746.97;;;14.76;78.01
82353;BME280;71954;47.430;18.920;2023-10-31T07:39:01;98737.59;;;14.80;77.98
82353;BME280;71954;47.430;18.920;2023-10-31T07:41:28;98750.41;;;14.85;76.92
82353;BME280;71954;47.430;18.920;2023-10-31T07:43:55;98751.34;;;14.92;77.27
82353;BME280;71954;47.430;18.920;2023-10-31T07:46:22;98740.75;;;14.98;76.87
82353;BME280;71954;47.430;18.920;2023-10-31T07:48:50;98731.34;;;15.02;75.96
82353;BME280;71954;47.430;18.920;2023-10-31T07:51:16;98728.97;;;15.07;76.54
82353;BME280;71954;47.430;18.920;2023-10-31T07:53:43;98729.34;;;15.19;75.22
82353;BME280;71954;47.430;18.920;2023-10-31T07:56:17;98730.94;;;15.28;75.14
82353;BME280;71954;47.430;18.920;2023-10-31T07:58:44;98731.03;;;15.35;73.94
82353;BME280;71954;47.430;18.920;2023-10-31T08:01:10;98716.53;;;15.44;74.56
82353;BME280;71954;47.430;18.920;2023-10-31T08:03:37;98711.13;;;15.52;70.85
82353;BME280;71954;47.430;18.920;2023-10-31T08:06:07;98715.34;;;15.61;72.39
82353;BME280;71954;47.430;18.920;2023-10-31T08:08:34;98719.16;;;15.67;73.39
82353;BME280;71954;47.430;18.920;2023-10-31T08:11:00;98719.19;;;15.73;70.21
82353;BME280;71954;47.430;18.920;2023-10-31T08:13:27;98711.47;;;15.78;69.14
82353;BME280;71954;47.430;18.920;2023-10-31T08:15:54;98715.41;;;15.82;71.94
82353;BME280;71954;47.430;18.920;2023-10-31T08:18:23;98714.69;;;15.74;70.25
82353;BME280;71954;47.430;18.920;2023-10-31T08:20:50;98711.84;;;15.75;67.23
82353;BME280;71954;47.430;18.920;2023-10-31T08:23:17;98723.72;;;15.87;66.74
82353;BME280;71954;47.430;18.920;2023-10-31T08:25:44;98711.69;;;15.98;68.80
82353;BME280;71954;47.430;18.920;2023-10-31T08:28:11;98717.59;;;16.08;71.41
82353;BME280;71954;47.430;18.920;2023-10-31T08:30:38;98716.00;;;16.14;66.39
82353;BME280;71954;47.430;18.920;2023-10-31T08:33:05;98702.28;;;16.23;66.89
82353;BME280;71954;47.430;18.920;2023-10-31T08:35:36;98700.06;;;16.27;68.54
82353;BME280;71954;47.430;18.920;2023-10-31T08:38:04;98703.63;;;16.34;62.48
82353;BME280;71954;47.430;18.920;2023-10-31T08:40:30;98694.38;;;16.37;64.67
82353;BME280;71954;47.430;18.920;2023-10-31T08:42:57;98700.44;;;16.45;64.33
82353;BME280;71954;47.430;18.920;2023-10-31T08:45:25;98692.09;;;16.55;64.82
82353;BME280;71954;47.430;18.920;2023-10-31T08:47:51;98693.84;;;16.62;66.27
82353;BME280;71954;47.430;18.920;2023-10-31T08:50:18;98691.00;;;16.71;64.88
82353;BME280;71954;47.430;18.920;2023-10-31T08:52:45;98685.50;;;16.79;64.71
82353;BME280;71954;47.430;18.920;2023-10-31T08:55:11;98679.19;;;16.86;68.64
82353;BME280;71954;47.430;18.920;2023-10-31T08:57:38;98670.53;;;16.91;65.96
82353;BME280;71954;47.430;18.920;2023-10-31T09:00:05;98667.09;;;16.97;62.39
82353;BME280;71954;47.430;18.920;2023-10-31T09:02:32;98658.06;;;17.04;61.57
82353;BME280;71954;47.430;18.920;2023-10-31T09:05:02;98654.38;;;17.12;62.09
82353;BME280;71954;47.430;18.920;2023-10-31T09:07:29;98656.25;;;17.18;66.49
82353;BME280;71954;47.430;18.920;2023-10-31T09:09:56;98670.31;;;17.20;61.39
82353;BME280;71954;47.430;18.920;2023-10-31T09:12:22;98679.22;;;17.27;62.08
82353;BME280;71954;47.430;18.920;2023-10-31T09:14:49;98659.66;;;17.33;64.73
82353;BME280;71954;47.430;18.920;2023-10-31T09:17:15;98658.44;;;17.36;61.46
82353;BME280;71954;47.430;18.920;2023-10-31T09:19:42;98658.88;;;17.39;61.82
82353;BME280;71954;47.430;18.920;2023-10-31T09:22:09;98653.72;;;17.44;61.05
82353;BME280;71954;47.430;18.920;2023-10-31T09:24:35;98652.28;;;17.48;65.34
82353;BME280;71954;47.430;18.920;2023-10-31T09:27:02;98650.28;;;17.57;66.46
82353;BME280;71954;47.430;18.920;2023-10-31T09:29:30;98619.72;;;17.52;59.39
82353;BME280;71954;47.430;18.920;2023-10-31T09:31:57;98638.59;;;17.65;61.81
82353;BME280;71954;47.430;18.920;2023-10-31T09:34:27;98622.88;;;17.68;59.25
82353;BME280;71954;47.430;18.920;2023-10-31T09:37:00;98618.56;;;17.74;59.29
82353;BME280;71954;47.430;18.920;2023-10-31T09:39:31;98620.66;;;17.72;58.92
82353;BME280;71954;47.430;18.920;2023-10-31T09:41:57;98622.53;;;17.78;59.83
82353;BME280;71954;47.430;18.920;2023-10-31T09:44:28;98617.75;;;17.80;61.46
82353;BME280;71954;47.430;18.920;2023-10-31T09:46:55;98616.34;;;17.84;58.96
82353;BME280;71954;47.430;18.920;2023-10-31T09:49:32;98606.66;;;17.89;58.08
82353;BME280;71954;47.430;18.920;2023-10-31T09:51:59;98603.34;;;17.94;57.69
82353;BME280;71954;47.430;18.920;2023-10-31T09:54:29;98608.28;;;17.97;59.10
82353;BME280;71954;47.430;18.920;2023-10-31T09:57:01;98604.78;;;18.03;61.66
82353;BME280;71954;47.430;18.920;2023-10-31T09:59:28;98590.34;;;18.04;62.03
82353;BME280;71954;47.430;18.920;2023-10-31T10:01:54;98578.78;;;18.10;57.51
82353;BME280;71954;47.430;18.920;2023-10-31T10:04:21;98562.03;;;18.15;57.10
82353;BME280;71954;47.430;18.920;2023-10-31T10:06:52;98557.09;;;18.18;61.74
82353;BME280;71954;47.430;18.920;2023-10-31T10:09:25;98555.00;;;18.20;61.68
82353;BME280;71954;47.430;18.920;2023-10-31T10:11:52;98542.84;;;18.24;58.00
82353;BME280;71954;47.430;18.920;2023-10-31T10:14:23;98548.81;;;18.26;61.79
82353;BME280;71954;47.430;18.920;2023-10-31T10:16:50;98533.75;;;18.25;57.62
82353;BME280;71954;47.430;18.920;2023-10-31T10:19:21;98517.84;;;18.30;62.00
82353;BME280;71954;47.430;18.920;2023-10-31T10:21:53;98512.03;;;18.34;59.91
82353;BME280;71954;47.430;18.920;2023-10-31T10:24:21;98504.19;;;18.32;57.72
82353;BME280;71954;47.430;18.920;2023-10-31T10:26:49;98490.72;;;18.39;58.11
82353;BME280;71954;47.430;18.920;2023-10-31T10:29:17;98491.16;;;18.42;52.97
82353;BME280;71954;47.430;18.920;2023-10-31T10:31:44;98486.81;;;18.48;55.84
82353;BME280;71954;47.430;18.920;2023-10-31T10:34:15;98468.81;;;18.48;52.46
82353;BME280;71954;47.430;18.920;2023-10-31T10:36:46;98475.44;;;18.46;54.64
82353;BME280;71954;47.430;18.920;2023-10-31T10:39:21;98470.88;;;18.53;59.04
82353;BME280;71954;47.430;18.920;2023-10-31T10:41:55;98480.41;;;18.55;54.15
82353;BME280;71954;47.430;18.920;2023-10-31T10:44:34;98482.25;;;18.61;62.17
82353;BME280;71954;47.430;18.920;2023-10-31T10:47:02;98464.03;;;18.63;54.71
82353;BME280;71954;47.430;18.920;2023-10-31T10:49:33;98466.50;;;18.72;53.71
82353;BME280;71954;47.430;18.920;2023-10-31T10:52:22;98449.06;;;18.81;56.12
82353;BME280;71954;47.430;18.920;2023-10-31T10:55:03;98449.50;;;18.84;55.11
82353;BME280;71954;47.430;18.920;2023-10-31T11:00:05;98462.09;;;18.90;55.50
82353;BME280;71954;47.430;18.920;2023-10-31T11:02:40;98438.28;;;18.94;54.22
82353;BME280;71954;47.430;18.920;2023-10-31T11:05:10;98420.91;;;18.96;54.37
82353;BME280;71954;47.430;18.920;2023-10-31T11:07:37;98413.44;;;18.98;52.61
82353;BME280;71954;47.430;18.920;2023-10-31T11:10:05;98408.44;;;19.02;54.91
82353;BME280;71954;47.430;18.920;2023-10-31T11:12:33;98421.91;;;19.02;57.40
82353;BME280;71954;47.430;18.920;2023-10-31T11:15:02;98436.59;;;18.99;57.13
82353;BME280;71954;47.430;18.920;2023-10-31T11:17:32;98455.22;;;18.94;56.84
82353;BME280;71954;47.430;18.920;2023-10-31T11:20:01;98460.81;;;18.93;59.66
82353;BME280;71954;47.430;18.920;2023-10-31T11:22:38;98453.84;;;18.85;59.09
82353;BME280;71954;47.430;18.920;2023-10-31T11:25:10;98443.97;;;18.73;59.18
82353;BME280;71954;47.430;18.920;2023-10-31T11:27:51;98408.88;;;18.61;60.57
82353;BME280;71954;47.430;18.920;2023-10-31T11:30:33;98404.13;;;18.50;62.08
82353;BME280;71954;47.430;18.920;2023-10-31T11:33:01;98378.50;;;18.47;63.96
82353;BME280;71954;47.430;18.920;2023-10-31T11:35:29;98373.13;;;18.47;64.90
82353;BME280;71954;47.430;18.920;2023-10-31T11:38:09;98367.34;;;18.44;63.74
82353;BME280;71954;47.430;18.920;2023-10-31T11:41:01;98363.69;;;18.32;63.86
82353;BME280;71954;47.430;18.920;2023-10-31T11:43:50;98355.41;;;18.26;67.10
82353;BME280;71954;47.430;18.920;2023-10-31T11:46:19;98336.91;;;18.05;66.82
82353;BME280;71954;47.430;18.920;2023-10-31T11:48:51;98341.06;;;17.95;66.69
82353;BME280;71954;47.430;18.920;2023-10-31T11:51:21;98349.97;;;17.82;68.16
82353;BME280;71954;47.430;18.920;2023-10-31T11:53:49;98333.69;;;17.77;69.65
82353;BME280;71954;47.430;18.920;2023-10-31T11:56:19;98336.16;;;17.72;70.34
82353;BME280;71954;47.430;18.920;2023-10-31T11:59:02;98326.88;;;17.68;70.21
82353;BME280;71954;47.430;18.920;2023-10-31T12:01:29;98315.53;;;17.66;70.38
82353;BME280;71954;47.430;18.920;2023-10-31T12:03:56;98323.59;;;17.66;70.79
82353;BME280;71954;47.430;18.920;2023-10-31T12:06:23;98308.53;;;17.65;69.21
82353;BME280;71954;47.430;18.920;2023-10-31T12:08:50;98332.88;;;17.63;69.02
82353;BME280;71954;47.430;18.920;2023-10-31T12:14:01;98361.13;;;17.39;71.56
82353;BME280;71954;47.430;18.920;2023-10-31T12:16:31;98417.84;;;17.23;72.37
82353;BME280;71954;47.430;18.920;2023-10-31T12:19:00;98529.16;;;16.99;70.17
82353;BME280;71954;47.430;18.920;2023-10-31T12:21:37;98569.16;;;16.39;69.88
82353;BME280;71954;47.430;18.920;2023-10-31T12:24:10;98657.22;;;16.06;72.45
82353;BME280;71954;47.430;18.920;2023-10-31T12:26:37;98665.50;;;15.90;74.24
82353;BME280;71954;47.430;18.920;2023-10-31T12:29:15;98636.50;;;15.57;74.59
82353;BME280;71954;47.430;18.920;2023-10-31T12:31:43;98643.06;;;15.40;75.79
82353;BME280;71954;47.430;18.920;2023-10-31T12:34:13;98630.66;;;15.18;77.27
82353;BME280;71954;47.430;18.920;2023-10-31T12:36:40;98589.38;;;15.05;78.12
82353;BME280;71954;47.430;18.920;2023-10-31T12:39:11;98587.06;;;15.02;76.95
82353;BME280;71954;47.430;18.920;2023-10-31T12:41:39;98591.03;;;15.06;79.01
82353;BME280;71954;47.430;18.920;2023-10-31T12:44:07;98578.28;;;15.08;79.09
82353;BME280;71954;47.430;18.920;2023-10-31T12:46:41;98581.06;;;15.15;79.44
82353;BME280;71954;47.430;18.920;2023-10-31T12:49:12;98552.88;;;15.13;79.90
82353;BME280;71954;47.430;18.920;2023-10-31T12:51:59;98598.31;;;15.13;80.14
82353;BME280;71954;47.430;18.920;2023-10-31T12:54:33;98618.66;;;15.14;80.28
82353;BME280;71954;47.430;18.920;2023-10-31T12:57:08;98620.97;;;15.17;80.24
82353;BME280;71954;47.430;18.920;2023-10-31T12:59:37;98615.22;;;15.20;79.31
82353;BME280;71954;47.430;18.920;2023-10-31T13:02:05;98617.91;;;15.20;78.46